Main page
METAR-TAF:

METAR-TAF

Airports :

Edinburgh, Scotland

Edinburgh Airport

latitude: 55-57N, longitude: 003-21W, elevation: 41 m

Current weather observation

The report was made 36 minutes ago, at 15:50 UTC
Wind 10 kt from the West/Southwest
Temperature 2°C
Humidity 87%
Pressure 1006 hPa
Visibility 10 km or more
Few clouds at a height of 1200 ft

METAR: EGPH 241550Z 24010KT 9999 FEW012 02/00 Q1006

Time: 16:26 (16:26 UTC)

Forecast

The report was made 3 hours and 45 minutes ago, at 12:41 UTC
Forecast valid from 24 at 12 UTC to 25 at 12 UTC
Wind 8 kt from the West/Southwest
Visibility 10 km or more
Few clouds at a height of 800 ft
Scattered clouds at a height of 1200 ft, Cumulonimbus.
Probability 30% :
Temporary
from 24 at 12 UTC to 24 at 17 UTC
Visibility: 4500 m
Broken clouds at a height of 800 ft
rain showers, snow

TAF: EGPH 241241Z 2412/2512 25008KT 9999 FEW008 SCT012CB PROB30 TEMPO 2412/2417 4500 SHRASN BKN008

Weather observations and forecasts of more than 4000 airports (METAR and TAF reports).

The available stations are represented by yellow and red dots on the map.

Hover mouse over dot to see the name of the station.

Then click to see weather observations and forecasts.

To change the map : click on the green buttons with a black cross to zoom in, on the green button with a dash to zoom out, or on the green arrows for adjacent maps.


METAR-TAF: